createdAt,value
2022-12-25T00:01:15.635Z,3.37
2022-12-25T00:03:42.173Z,3.36
2022-12-25T00:06:08.699Z,3.36
2022-12-25T00:08:35.745Z,3.37
2022-12-25T00:11:06.758Z,3.36
2022-12-25T00:13:33.609Z,3.35
2022-12-25T00:16:00.275Z,3.28
2022-12-25T00:18:26.762Z,3.22
2022-12-25T00:21:00.531Z,3.20
2022-12-25T00:23:27.423Z,3.23
2022-12-25T00:25:54.316Z,3.25
2022-12-25T00:28:20.952Z,3.25
2022-12-25T00:30:47.447Z,3.25
2022-12-25T00:33:13.944Z,3.27
2022-12-25T00:35:40.402Z,3.29
2022-12-25T00:38:06.896Z,3.30
2022-12-25T00:40:33.364Z,3.28
2022-12-25T00:42:59.799Z,3.25
2022-12-25T00:45:26.334Z,3.17
2022-12-25T00:47:52.776Z,3.11
2022-12-25T00:50:19.265Z,3.13
2022-12-25T00:52:45.704Z,3.15
2022-12-25T00:55:12.120Z,3.13
2022-12-25T00:57:38.541Z,3.14
2022-12-25T01:00:05.179Z,3.15
2022-12-25T01:02:31.693Z,3.16
2022-12-25T01:04:58.227Z,3.15
2022-12-25T01:07:25.772Z,3.13
2022-12-25T01:10:10.910Z,3.13
2022-12-25T01:12:39.239Z,3.12
2022-12-25T01:15:07.229Z,3.09
2022-12-25T01:17:34.024Z,3.11
2022-12-25T01:20:00.533Z,3.11
2022-12-25T01:22:27.530Z,3.09
2022-12-25T01:24:53.994Z,3.08
2022-12-25T01:27:20.432Z,3.08
2022-12-25T01:29:46.915Z,3.05
2022-12-25T01:32:13.582Z,3.01
2022-12-25T01:34:40.106Z,3.03
2022-12-25T01:37:07.204Z,3.04
2022-12-25T01:39:33.867Z,2.99
2022-12-25T01:42:00.336Z,2.93
2022-12-25T01:44:35.645Z,2.93
2022-12-25T01:47:02.840Z,2.92
2022-12-25T01:49:29.531Z,2.95
2022-12-25T01:51:58.753Z,2.98
2022-12-25T01:54:27.783Z,3.00
2022-12-25T01:56:55.383Z,2.97
2022-12-25T01:59:23.685Z,2.79
2022-12-25T02:01:50.622Z,2.78
2022-12-25T02:04:40.660Z,2.83
2022-12-25T02:07:08.395Z,2.87
2022-12-25T02:09:34.904Z,2.90
2022-12-25T02:12:01.690Z,2.88
2022-12-25T02:14:29.389Z,2.88
2022-12-25T02:17:05.780Z,2.91
2022-12-25T02:19:32.542Z,2.96
2022-12-25T02:22:19.230Z,2.89
2022-12-25T02:25:10.914Z,2.86
2022-12-25T02:27:37.398Z,2.86
2022-12-25T02:30:08.653Z,2.87
2022-12-25T02:32:39.509Z,2.90
2022-12-25T02:35:11.893Z,2.86
2022-12-25T02:37:58.598Z,2.82
2022-12-25T02:40:24.994Z,2.85
2022-12-25T02:43:10.239Z,2.88
2022-12-25T02:46:12.137Z,2.90
2022-12-25T02:48:58.636Z,2.91
2022-12-25T02:51:46.177Z,2.92
2022-12-25T02:54:33.099Z,2.89
2022-12-25T02:57:20.504Z,2.92
2022-12-25T03:00:06.953Z,2.93
2022-12-25T03:02:52.377Z,2.87
2022-12-25T03:05:42.742Z,2.81
2022-12-25T03:08:13.843Z,2.83
2022-12-25T03:10:59.952Z,2.84
2022-12-25T03:13:32.848Z,2.85
2022-12-25T03:16:17.979Z,2.87
2022-12-25T03:18:44.644Z,2.84
2022-12-25T03:21:29.605Z,2.79
2022-12-25T03:24:17.723Z,2.80
2022-12-25T03:26:56.143Z,2.84
2022-12-25T03:29:46.923Z,2.83
2022-12-25T03:32:13.349Z,2.86
2022-12-25T03:35:10.429Z,2.88
2022-12-25T03:38:29.512Z,2.90
2022-12-25T03:41:33.628Z,2.94
2022-12-25T03:44:27.012Z,2.94
2022-12-25T03:47:37.851Z,2.89
2022-12-25T03:50:28.670Z,2.92
2022-12-25T03:53:15.667Z,2.95
2022-12-25T03:56:01.674Z,2.92
2022-12-25T03:58:46.985Z,2.95
2022-12-25T04:01:51.878Z,2.96
2022-12-25T04:04:37.345Z,2.91
2022-12-25T04:07:22.119Z,2.92
2022-12-25T04:10:07.115Z,2.93
2022-12-25T04:12:52.088Z,2.94
2022-12-25T04:15:37.460Z,2.97
2022-12-25T04:18:22.655Z,2.94
2022-12-25T04:21:07.671Z,2.95
2022-12-25T04:23:52.700Z,2.95
2022-12-25T04:26:51.223Z,2.92
2022-12-25T04:29:36.106Z,2.93
2022-12-25T04:32:20.954Z,2.96
2022-12-25T04:35:05.953Z,2.95
2022-12-25T04:37:32.357Z,2.95
2022-12-25T04:39:58.821Z,2.94
2022-12-25T04:42:25.261Z,2.93
2022-12-25T04:44:51.694Z,2.94
2022-12-25T04:47:18.155Z,2.93
2022-12-25T04:49:44.680Z,2.94
2022-12-25T04:52:11.111Z,2.96
2022-12-25T04:54:37.887Z,2.96
2022-12-25T04:57:04.540Z,2.92
2022-12-25T04:59:31.014Z,2.91
2022-12-25T05:01:57.535Z,2.83
2022-12-25T05:04:24.075Z,2.77
2022-12-25T05:06:50.576Z,2.78
2022-12-25T05:09:17.119Z,2.80
2022-12-25T05:11:43.719Z,2.81
2022-12-25T05:14:10.158Z,2.85
2022-12-25T05:16:36.723Z,2.84
2022-12-25T05:19:03.337Z,2.83
2022-12-25T05:21:29.747Z,2.83
2022-12-25T05:23:56.183Z,2.83
2022-12-25T05:26:24.184Z,2.81
2022-12-25T05:28:50.656Z,2.83
2022-12-25T05:31:17.647Z,2.76
2022-12-25T05:33:44.316Z,2.77
2022-12-25T05:36:11.469Z,2.68
2022-12-25T05:38:38.457Z,2.54
2022-12-25T05:41:05.066Z,2.53
2022-12-25T05:43:31.556Z,2.59
2022-12-25T05:45:58.033Z,2.64
2022-12-25T05:48:24.494Z,2.67
2022-12-25T05:50:50.947Z,2.69
2022-12-25T05:53:17.458Z,2.66
2022-12-25T05:55:44.191Z,2.68
2022-12-25T05:58:11.223Z,2.70
2022-12-25T06:00:37.778Z,2.70
2022-12-25T06:03:04.306Z,2.71
2022-12-25T06:05:31.005Z,2.75
2022-12-25T06:07:57.518Z,2.75
2022-12-25T06:10:24.127Z,2.66
2022-12-25T06:12:50.666Z,2.63
2022-12-25T06:15:17.105Z,2.66
2022-12-25T06:17:43.596Z,2.69
2022-12-25T06:20:10.155Z,2.74
2022-12-25T06:22:36.643Z,2.73
2022-12-25T06:25:03.245Z,2.73
2022-12-25T06:27:29.691Z,2.70
2022-12-25T06:29:56.760Z,2.70
2022-12-25T06:32:23.166Z,2.71
2022-12-25T06:34:49.597Z,2.71
2022-12-25T06:37:16.037Z,2.71
2022-12-25T06:39:42.463Z,2.70
2022-12-25T06:42:09.175Z,2.68
2022-12-25T06:44:35.629Z,2.67
2022-12-25T06:47:02.105Z,2.66
2022-12-25T06:49:28.595Z,2.65
2022-12-25T06:51:55.554Z,2.59
2022-12-25T06:54:22.039Z,2.57
2022-12-25T06:56:48.821Z,2.59
2022-12-25T06:59:15.355Z,2.53
2022-12-25T07:01:48.077Z,2.56
2022-12-25T07:04:40.983Z,2.62
2022-12-25T07:07:09.497Z,2.63
2022-12-25T07:09:36.416Z,2.63
2022-12-25T07:12:07.164Z,2.52
2022-12-25T07:14:33.737Z,2.40
2022-12-25T07:17:00.241Z,2.44
2022-12-25T07:19:26.808Z,2.51
2022-12-25T07:21:53.232Z,2.52
2022-12-25T07:24:20.594Z,2.48
2022-12-25T07:26:47.116Z,2.43
2022-12-25T07:29:13.588Z,2.40
2022-12-25T07:31:40.071Z,2.48
2022-12-25T07:34:06.584Z,2.48
2022-12-25T07:36:33.022Z,2.51
2022-12-25T07:38:59.504Z,2.54
2022-12-25T07:41:26.080Z,2.57
2022-12-25T07:43:53.470Z,2.56
2022-12-25T07:46:20.916Z,2.54
2022-12-25T07:48:47.453Z,2.53
2022-12-25T07:51:14.929Z,2.54
2022-12-25T07:53:41.741Z,2.54
2022-12-25T07:56:18.419Z,2.53
2022-12-25T07:58:45.073Z,2.51
2022-12-25T08:01:12.921Z,2.55
2022-12-25T08:03:39.691Z,2.58
2022-12-25T08:06:07.619Z,2.60
2022-12-25T08:08:34.623Z,2.51
2022-12-25T08:11:01.309Z,2.53
2022-12-25T08:13:30.718Z,2.55
2022-12-25T08:15:58.598Z,2.51
2022-12-25T08:18:29.996Z,2.48
2022-12-25T08:20:56.888Z,2.52
2022-12-25T08:23:23.373Z,2.53
2022-12-25T08:25:49.811Z,2.53
2022-12-25T08:28:16.256Z,2.51
2022-12-25T08:30:42.773Z,2.46
2022-12-25T08:33:09.243Z,2.51
2022-12-25T08:35:36.083Z,2.55
2022-12-25T08:38:02.650Z,2.50
2022-12-25T08:40:29.076Z,2.57
2022-12-25T08:42:58.617Z,2.57
2022-12-25T08:45:29.806Z,2.53
2022-12-25T08:47:59.276Z,2.54
2022-12-25T08:50:26.159Z,2.60
2022-12-25T08:52:52.591Z,2.63
2022-12-25T08:55:19.065Z,2.62
2022-12-25T08:57:45.496Z,2.68
2022-12-25T09:00:12.184Z,2.73
2022-12-25T09:02:38.723Z,2.78
2022-12-25T09:05:05.608Z,2.75
2022-12-25T09:07:32.036Z,2.70
2022-12-25T09:09:58.515Z,2.76
2022-12-25T09:12:24.941Z,2.77
2022-12-25T09:14:53.270Z,2.74
2022-12-25T09:17:19.716Z,2.80
2022-12-25T09:19:46.137Z,2.78
2022-12-25T09:22:12.595Z,2.78
2022-12-25T09:24:39.349Z,2.83
2022-12-25T09:27:05.803Z,2.85
2022-12-25T09:29:32.257Z,2.88
2022-12-25T09:31:58.679Z,2.92
2022-12-25T09:34:25.149Z,2.96
2022-12-25T09:36:51.593Z,2.98
2022-12-25T09:39:18.093Z,3.01
2022-12-25T09:42:13.948Z,3.03
2022-12-25T09:44:44.926Z,3.07
2022-12-25T09:47:13.551Z,3.08
2022-12-25T09:49:58.437Z,3.09
2022-12-25T09:52:37.532Z,3.08
2022-12-25T09:55:14.775Z,3.08
2022-12-25T09:57:45.180Z,3.08
2022-12-25T10:00:16.256Z,3.08
2022-12-25T10:02:45.977Z,3.07
2022-12-25T10:05:18.785Z,3.09
2022-12-25T10:08:01.415Z,3.09
2022-12-25T10:10:40.473Z,3.12
2022-12-25T10:13:10.156Z,3.12
2022-12-25T10:15:45.603Z,3.12
2022-12-25T10:18:35.603Z,3.13
2022-12-25T10:21:08.073Z,3.13
2022-12-25T10:23:41.602Z,3.16
2022-12-25T10:26:14.664Z,3.18
2022-12-25T10:28:51.188Z,3.16
2022-12-25T10:31:20.125Z,3.14
2022-12-25T10:33:46.975Z,3.15
2022-12-25T10:36:14.163Z,3.16
2022-12-25T10:38:40.624Z,3.16
2022-12-25T10:41:13.200Z,3.17
2022-12-25T10:43:49.040Z,3.17
2022-12-25T10:46:16.830Z,3.17
2022-12-25T10:48:47.555Z,3.19
2022-12-25T10:51:14.208Z,3.24
2022-12-25T10:53:42.241Z,3.24
2022-12-25T10:56:16.405Z,3.29
2022-12-25T10:58:44.106Z,3.31
2022-12-25T11:01:10.968Z,3.31
2022-12-25T11:03:39.097Z,3.31
2022-12-25T11:06:06.581Z,3.30
2022-12-25T11:08:34.803Z,3.31
2022-12-25T11:11:06.725Z,3.34
2022-12-25T11:13:39.182Z,3.36
2022-12-25T11:16:06.052Z,3.39
2022-12-25T11:18:34.560Z,3.41
2022-12-25T11:21:02.720Z,3.42
2022-12-25T11:23:30.561Z,3.45
2022-12-25T11:26:07.220Z,3.52
2022-12-25T11:28:35.206Z,3.57
2022-12-25T11:31:03.366Z,3.59
2022-12-25T11:33:34.806Z,3.62
2022-12-25T11:36:03.907Z,3.64
2022-12-25T11:38:30.466Z,3.69
2022-12-25T11:41:01.562Z,3.74
2022-12-25T11:43:34.065Z,3.80
2022-12-25T11:46:22.826Z,3.88
2022-12-25T11:48:56.149Z,3.97
2022-12-25T11:51:27.984Z,4.05
2022-12-25T11:53:55.950Z,4.08
2022-12-25T11:56:24.462Z,4.15
2022-12-25T11:58:52.350Z,4.21
2022-12-25T12:01:26.489Z,4.25
2022-12-25T12:03:54.255Z,4.30
2022-12-25T12:06:28.437Z,4.34
2022-12-25T12:09:03.007Z,4.37
2022-12-25T12:11:35.560Z,4.44
2022-12-25T12:14:10.920Z,4.51
2022-12-25T12:16:37.457Z,4.56
2022-12-25T12:19:22.461Z,4.61
2022-12-25T12:21:49.555Z,4.68
2022-12-25T12:24:20.847Z,4.70
2022-12-25T12:26:59.127Z,4.73
2022-12-25T12:29:28.121Z,4.75
2022-12-25T12:31:56.471Z,4.75
2022-12-25T12:34:32.125Z,4.77
2022-12-25T12:37:04.067Z,4.77
2022-12-25T12:39:40.451Z,4.79
2022-12-25T12:42:17.935Z,4.76
2022-12-25T12:44:45.426Z,4.74
2022-12-25T12:47:50.495Z,4.75
2022-12-25T12:50:27.862Z,4.72
2022-12-25T12:52:55.546Z,4.70
2022-12-25T12:55:35.269Z,4.65
2022-12-25T12:58:03.493Z,4.68
2022-12-25T13:00:37.250Z,4.76
2022-12-25T13:03:16.015Z,4.81
2022-12-25T13:05:46.200Z,4.81
2022-12-25T13:08:12.895Z,4.80
2022-12-25T13:10:41.405Z,4.76
2022-12-25T13:13:28.374Z,4.71
2022-12-25T13:15:56.084Z,4.63
2022-12-25T13:18:22.632Z,4.56
2022-12-25T13:20:56.716Z,4.51
2022-12-25T13:23:28.029Z,4.48
2022-12-25T13:25:58.968Z,4.44
2022-12-25T13:28:26.246Z,4.37
2022-12-25T13:30:52.750Z,4.31
2022-12-25T13:33:20.361Z,4.28
2022-12-25T13:35:47.346Z,4.26
2022-12-25T13:38:18.142Z,4.21
2022-12-25T13:41:11.873Z,4.14
2022-12-25T13:43:39.652Z,4.04
2022-12-25T13:46:06.246Z,3.96
2022-12-25T13:48:32.866Z,3.87
2022-12-25T13:51:00.430Z,3.81
2022-12-25T13:53:27.120Z,3.79
2022-12-25T13:55:54.525Z,3.77
2022-12-25T13:58:31.172Z,3.71
2022-12-25T14:00:58.958Z,3.70
2022-12-25T14:03:46.289Z,3.65
2022-12-25T14:06:21.898Z,3.55
2022-12-25T14:08:48.964Z,3.52
2022-12-25T14:11:15.978Z,3.47
2022-12-25T14:13:44.277Z,3.43
2022-12-25T14:16:11.013Z,3.37
2022-12-25T14:18:37.736Z,3.35
2022-12-25T14:21:13.668Z,3.30
2022-12-25T14:23:40.690Z,3.25
2022-12-25T14:26:07.529Z,3.22
2022-12-25T14:28:34.555Z,3.17
2022-12-25T14:31:02.719Z,3.12
2022-12-25T14:33:33.005Z,3.08
2022-12-25T14:35:59.748Z,3.02
2022-12-25T14:38:27.773Z,2.97
2022-12-25T14:41:00.308Z,2.95
2022-12-25T14:43:27.929Z,2.91
2022-12-25T14:46:06.553Z,2.86
2022-12-25T14:48:33.516Z,2.80
2022-12-25T14:51:00.271Z,2.76
2022-12-25T14:53:37.988Z,2.73
2022-12-25T14:56:04.890Z,2.70
2022-12-25T14:58:32.807Z,2.62
2022-12-25T15:01:03.108Z,2.54
2022-12-25T15:03:31.112Z,2.49
2022-12-25T15:06:01.910Z,2.47
2022-12-25T15:08:29.287Z,2.44
2022-12-25T15:11:01.880Z,2.41
2022-12-25T15:13:29.622Z,2.41
2022-12-25T15:16:06.211Z,2.38
2022-12-25T15:18:41.043Z,2.34
2022-12-25T15:21:14.860Z,2.31
2022-12-25T15:23:41.367Z,2.27
2022-12-25T15:26:09.851Z,2.28
2022-12-25T15:28:36.304Z,2.29
2022-12-25T15:31:02.779Z,2.24
2022-12-25T15:33:29.246Z,2.20
2022-12-25T15:35:55.698Z,2.15
2022-12-25T15:38:22.146Z,2.13
2022-12-25T15:40:48.705Z,2.07
2022-12-25T15:43:39.539Z,2.02
2022-12-25T15:46:02.044Z,2.01
2022-12-25T15:48:28.681Z,1.98
2022-12-25T15:50:55.171Z,1.99
2022-12-25T15:53:21.725Z,1.96
2022-12-25T15:55:49.222Z,1.93
2022-12-25T15:58:15.694Z,1.89
2022-12-25T16:00:42.135Z,1.86
2022-12-25T16:03:08.746Z,1.84
2022-12-25T16:05:35.334Z,1.83
2022-12-25T16:08:01.786Z,1.83
2022-12-25T16:10:31.005Z,1.80
2022-12-25T16:13:01.426Z,1.77
2022-12-25T16:15:27.853Z,1.76
2022-12-25T16:17:54.284Z,1.73
2022-12-25T16:20:20.762Z,1.70
2022-12-25T16:22:47.247Z,1.70
2022-12-25T16:25:15.511Z,1.72
2022-12-25T16:27:41.947Z,1.73
2022-12-25T16:30:08.928Z,1.71
2022-12-25T16:32:35.379Z,1.72
2022-12-25T16:35:01.867Z,1.71
2022-12-25T16:37:28.374Z,1.70
2022-12-25T16:39:54.825Z,1.72
2022-12-25T16:42:21.277Z,1.75
2022-12-25T16:44:47.772Z,1.77
2022-12-25T16:47:14.201Z,1.76
2022-12-25T16:49:40.690Z,1.74
2022-12-25T16:52:07.150Z,1.73
2022-12-25T16:54:33.576Z,1.75
2022-12-25T16:57:00.022Z,1.76
2022-12-25T16:59:28.271Z,1.80
2022-12-25T17:01:54.782Z,1.80
2022-12-25T17:04:21.834Z,1.79
2022-12-25T17:06:48.837Z,1.76
2022-12-25T17:09:15.292Z,1.79
2022-12-25T17:11:41.721Z,1.79
2022-12-25T17:14:08.241Z,1.77
2022-12-25T17:16:35.806Z,1.72
2022-12-25T17:19:11.098Z,1.69
2022-12-25T17:21:38.727Z,1.68
2022-12-25T17:24:06.105Z,1.69
2022-12-25T17:26:32.901Z,1.71
2022-12-25T17:28:59.351Z,1.72
2022-12-25T17:31:25.927Z,1.71
2022-12-25T17:33:52.491Z,1.67
2022-12-25T17:36:20.175Z,1.65
2022-12-25T17:38:47.669Z,1.63
2022-12-25T17:41:15.064Z,1.63
2022-12-25T17:43:42.512Z,1.66
2022-12-25T17:46:19.571Z,1.69
2022-12-25T17:48:47.589Z,1.72
2022-12-25T17:51:18.957Z,1.72
2022-12-25T17:53:47.151Z,1.70
2022-12-25T17:56:14.742Z,1.67
2022-12-25T17:58:43.453Z,1.63
2022-12-25T18:01:16.671Z,1.57
2022-12-25T18:03:45.837Z,1.58
2022-12-25T18:06:15.871Z,1.53
2022-12-25T18:08:46.078Z,1.51
2022-12-25T18:11:15.779Z,1.51
2022-12-25T18:13:48.589Z,1.52
2022-12-25T18:16:15.712Z,1.50
2022-12-25T18:18:47.866Z,1.51
2022-12-25T18:21:18.419Z,1.49
2022-12-25T18:23:47.347Z,1.49
2022-12-25T18:26:14.423Z,1.48
2022-12-25T18:28:42.692Z,1.43
2022-12-25T18:31:19.404Z,1.44
2022-12-25T18:33:46.190Z,1.44
2022-12-25T18:36:13.653Z,1.42
2022-12-25T18:38:40.183Z,1.39
2022-12-25T18:41:07.619Z,1.36
2022-12-25T18:43:51.386Z,1.37
2022-12-25T18:46:22.392Z,1.37
2022-12-25T18:48:48.997Z,1.38
2022-12-25T18:51:15.429Z,1.36
2022-12-25T18:53:41.884Z,1.36
2022-12-25T18:56:09.608Z,1.33
2022-12-25T18:58:37.578Z,1.32
2022-12-25T19:01:30.200Z,1.35
2022-12-25T19:04:04.433Z,1.37
2022-12-25T19:06:33.377Z,1.37
2022-12-25T19:09:00.171Z,1.38
2022-12-25T19:11:26.903Z,1.37
2022-12-25T19:13:53.407Z,1.33
2022-12-25T19:16:19.903Z,1.31
2022-12-25T19:18:46.467Z,1.32
2022-12-25T19:21:13.180Z,1.37
2022-12-25T19:23:40.686Z,1.41
2022-12-25T19:26:07.939Z,1.41
2022-12-25T19:28:34.634Z,1.40
2022-12-25T19:31:01.557Z,1.41
2022-12-25T19:33:28.233Z,1.42
2022-12-25T19:35:58.829Z,1.44
2022-12-25T19:38:25.290Z,1.43
2022-12-25T19:41:00.961Z,1.42
2022-12-25T19:43:31.947Z,1.38
2022-12-25T19:45:58.734Z,1.34
2022-12-25T19:48:25.443Z,1.38
2022-12-25T19:50:51.951Z,1.43
2022-12-25T19:53:18.633Z,1.46
2022-12-25T19:55:45.299Z,1.44
2022-12-25T19:58:12.134Z,1.44
2022-12-25T20:00:40.401Z,1.47
2022-12-25T20:03:07.042Z,1.48
2022-12-25T20:05:33.587Z,1.47
2022-12-25T20:08:00.066Z,1.44
2022-12-25T20:10:26.527Z,1.46
2022-12-25T20:12:53.299Z,1.51
2022-12-25T20:15:19.847Z,1.48
2022-12-25T20:17:47.034Z,1.38
2022-12-25T20:20:13.553Z,1.43
2022-12-25T20:22:40.415Z,1.44
2022-12-25T20:25:09.155Z,1.49
2022-12-25T20:27:35.652Z,1.55
2022-12-25T20:30:02.251Z,1.57
2022-12-25T20:32:29.455Z,1.56
2022-12-25T20:34:55.906Z,1.56
2022-12-25T20:37:22.354Z,1.55
2022-12-25T20:39:48.832Z,1.58
2022-12-25T20:42:15.246Z,1.58
2022-12-25T20:44:41.674Z,1.61
2022-12-25T20:47:09.048Z,1.60
2022-12-25T20:49:35.463Z,1.59
2022-12-25T20:52:05.515Z,1.61
2022-12-25T20:54:32.258Z,1.63
2022-12-25T20:56:58.768Z,1.62
2022-12-25T20:59:25.481Z,1.62
2022-12-25T21:01:54.628Z,1.63
2022-12-25T21:04:21.200Z,1.63
2022-12-25T21:06:47.842Z,1.65
2022-12-25T21:09:14.721Z,1.62
2022-12-25T21:11:41.333Z,1.59
2022-12-25T21:14:07.977Z,1.53
2022-12-25T21:16:35.711Z,1.52
2022-12-25T21:19:02.644Z,1.53
2022-12-25T21:21:29.606Z,1.54
2022-12-25T21:23:57.831Z,1.50
2022-12-25T21:26:25.985Z,1.52
2022-12-25T21:28:54.427Z,1.52
2022-12-25T21:31:21.093Z,1.55
2022-12-25T21:33:54.242Z,1.52
2022-12-25T21:36:21.300Z,1.58
2022-12-25T21:38:51.390Z,1.59
2022-12-25T21:41:17.916Z,1.60
2022-12-25T21:43:44.451Z,1.59
2022-12-25T21:46:12.101Z,1.58
2022-12-25T21:48:39.210Z,1.58
2022-12-25T21:51:25.011Z,1.52
2022-12-25T21:53:51.451Z,1.49
2022-12-25T21:56:18.225Z,1.49
2022-12-25T21:58:44.670Z,1.50
2022-12-25T22:01:11.938Z,1.45
2022-12-25T22:03:38.550Z,1.36
2022-12-25T22:06:23.744Z,1.32
2022-12-25T22:08:50.242Z,1.30
2022-12-25T22:11:35.282Z,1.27
2022-12-25T22:14:20.155Z,1.24
2022-12-25T22:17:25.450Z,1.21
2022-12-25T22:19:51.918Z,1.16
2022-12-25T22:22:21.141Z,1.15
2022-12-25T22:24:48.251Z,1.11
2022-12-25T22:27:14.813Z,1.09
2022-12-25T22:29:41.313Z,1.11
2022-12-25T22:32:08.232Z,1.10
2022-12-25T22:34:34.959Z,1.10
2022-12-25T22:37:01.760Z,1.07
2022-12-25T22:39:29.043Z,1.14
2022-12-25T22:41:56.339Z,1.21
2022-12-25T22:44:23.608Z,1.28
2022-12-25T22:46:50.132Z,1.34
2022-12-25T22:49:17.265Z,1.37
2022-12-25T22:51:44.513Z,1.41
2022-12-25T22:54:13.176Z,1.46
2022-12-25T22:56:40.643Z,1.51
2022-12-25T22:59:07.199Z,1.56
2022-12-25T23:01:33.694Z,1.59
2022-12-25T23:04:00.295Z,1.64
2022-12-25T23:06:26.789Z,1.59
2022-12-25T23:08:53.217Z,1.64
2022-12-25T23:11:19.722Z,1.67
2022-12-25T23:14:04.515Z,1.74
2022-12-25T23:16:31.032Z,1.75
2022-12-25T23:19:16.265Z,1.74
2022-12-25T23:22:01.582Z,1.79
2022-12-25T23:24:46.626Z,1.79
2022-12-25T23:27:13.166Z,1.87
2022-12-25T23:29:39.996Z,1.93
2022-12-25T23:32:06.427Z,1.96
2022-12-25T23:34:33.816Z,1.93
2022-12-25T23:37:00.471Z,1.94
2022-12-25T23:39:27.123Z,1.94
2022-12-25T23:41:53.664Z,1.90
2022-12-25T23:44:20.817Z,1.93
2022-12-25T23:46:52.683Z,1.95
2022-12-25T23:49:19.971Z,1.96
2022-12-25T23:51:46.795Z,1.94
2022-12-25T23:54:14.505Z,1.98
2022-12-25T23:56:41.412Z,2.04
2022-12-25T23:59:08.141Z,2.04
